Latest Weather Observations for Bairnsdale

IDV60801

Issued at 8:02 am EST Monday 27 April 2015 (issued every 30 minutes, with the page automatically refreshed every 10 minutes)

About weather observations | Map of weather stations | Latest weather observations for VIC | Other Formats
Station Details ID: 085279 Name: BAIRNSDALE AIRPORT Lat: -37.88 Lon: 147.57 Height: 49.4 m
Data from the previous 72 hours. | See also: Recent months at Bairnsdale
Date/Time
EST
Temp
°C
App
Temp
°C
Dew
Point
Rel
Hum
%
Delta-T
°C
Wind Press
QNH
hPa
Press
MSL
hPa
Rain
since 9 am
mm
Dir
 
Spd
km/h
Gust
km/h
Spd
kts
Gust
kts
27/08:00am 11.5 7.0 8.7 83 1.4 W 22 33 12 18 1021.3 1021.3 0.0
27/07:30am 10.6 6.5 8.7 88 0.9 WNW 20 26 11 14 1020.6 1020.6 0.0
27/07:00am 10.3 6.9 9.1 92 0.6 WNW 17 26 9 14 1020.2 1020.2 0.0
27/06:48am 10.5 6.7 8.9 90 0.8 W 19 24 10 13 1020.1 1020.1 0.0
27/06:30am 10.7 7.2 8.6 87 1.0 W 17 24 9 13 1020.0 1020.0 0.0
27/06:00am 10.4 6.2 8.3 87 1.0 W 20 28 11 15 1019.7 1019.7 0.0
27/05:30am 10.7 6.8 8.6 87 1.0 W 19 26 10 14 1019.4 1019.4 0.0
27/05:00am 10.7 6.6 8.6 87 1.0 W 20 30 11 16 1019.3 1019.3 0.0
27/04:30am 10.8 6.7 8.6 86 1.1 W 20 28 11 15 1018.8 1018.8 0.0
27/04:00am 11.0 6.9 8.6 85 1.2 W 20 28 11 15 1018.5 1018.5 0.0
27/03:30am 11.2 7.0 8.4 83 1.4 W 20 28 11 15 1018.3 1018.3 0.0
27/03:00am 11.1 6.5 8.3 83 1.4 W 22 33 12 18 1018.2 1018.2 0.0
27/02:30am 11.2 7.0 8.2 82 1.5 W 20 32 11 17 1018.1 1018.1 0.0
27/02:00am 11.0 6.9 8.0 82 1.5 W 19 30 10 16 1018.1 1018.1 0.0
27/01:30am 10.9 6.5 7.6 80 1.6 W 20 30 11 16 1018.1 1018.1 0.0
27/01:00am 10.7 6.3 7.6 81 1.5 W 20 26 11 14 1018.1 1018.1 0.0
27/12:30am 10.9 6.5 7.4 79 1.7 W 20 28 11 15 1018.2 1018.2 0.0
27/12:00am 11.0 7.1 7.1 77 1.9 WNW 17 24 9 13 1018.3 1018.3 0.0
 
Date/Time
EST
Temp
°C
App
Temp
°C
Dew
Point
Rel
Hum
%
Delta-T
°C
Wind Press
QNH
hPa
Press
MSL
hPa
Rain
since 9 am
mm
Dir
 
Spd
km/h
Gust
km/h
Spd
kts
Gust
kts
26/11:30pm 10.8 6.5 7.1 78 1.8 W 19 30 10 16 1018.4 1018.4 0.0
26/11:00pm 10.7 7.2 7.4 80 1.6 WNW 15 20 8 11 1018.6 1018.6 0.0
26/10:30pm 10.1 6.6 7.3 83 1.3 WNW 15 19 8 10 1018.8 1018.8 0.0
26/10:00pm 10.0 6.6 7.6 85 1.1 WNW 15 20 8 11 1018.8 1018.8 0.0
26/09:30pm 10.8 7.0 7.7 81 1.5 W 17 26 9 14 1018.9 1018.9 0.0
26/09:00pm 11.3 6.9 7.6 78 1.8 W 20 30 11 16 1018.9 1018.9 0.0
26/08:30pm 10.8 7.0 7.7 81 1.5 W 17 22 9 12 1018.7 1018.7 0.0
26/08:00pm 11.2 7.4 7.7 79 1.7 WNW 17 28 9 15 1018.4 1018.4 0.0
26/07:30pm 11.5 8.2 8.2 80 1.6 W 15 20 8 11 1018.4 1018.4 0.0
26/07:00pm 11.5 7.4 8.5 82 1.5 W 20 32 11 17 1018.2 1018.2 0.0
26/06:30pm 12.2 6.4 7.9 75 2.1 W 28 39 15 21 1017.9 1017.9 0.0
26/06:00pm 12.7 8.0 7.8 72 2.4 W 22 33 12 18 1017.5 1017.5 0.0
26/05:30pm 12.6 8.5 7.7 72 2.4 W 19 28 10 15 1017.0 1017.0 0.0
26/05:00pm 13.0 7.9 7.5 69 2.7 WSW 24 37 13 20 1016.7 1016.7 0.0
26/04:30pm 13.4 8.3 7.8 69 2.8 W 24 35 13 19 1016.5 1016.5 0.0
26/04:00pm 13.4 9.5 8.7 73 2.4 W 19 32 10 17 1016.5 1016.5 0.0
26/03:30pm 13.4 7.9 9.1 75 2.2 WSW 28 39 15 21 1016.3 1016.3 0.0
26/03:00pm 14.0 9.1 9.8 76 2.2 WSW 26 35 14 19 1015.9 1015.9 0.0
26/02:30pm 13.7 9.4 10.7 82 1.6 SW 24 37 13 20 1015.8 1015.7 0.0
26/02:00pm 12.6 6.5 9.6 82 1.5 WSW 32 43 17 23 1015.8 1015.7 0.0
26/01:30pm 14.1 8.6 9.3 73 2.5 WSW 28 41 15 22 1015.6 1015.5 0.0
26/01:00pm 13.7 7.7 8.7 72 2.5 W 30 41 16 22 1015.5 1015.4 0.0
26/12:30pm 13.7 8.4 8.5 71 2.6 W 26 35 14 19 1015.5 1015.4 0.0
26/12:06pm 13.1 7.2 7.5 69 2.7 WSW 28 48 15 26 1015.6 1015.5 0.0
26/12:00pm 13.2 8.2 7.9 70 2.6 WSW 24 39 13 21 1015.6 1015.5 0.0
26/11:30am 12.9 7.5 7.8 71 2.5 WSW 26 39 14 21 1015.8 1015.7 0.0
26/11:00am 12.8 6.9 7.3 69 2.7 WSW 28 39 15 21 1015.9 1015.9 0.0
26/10:43am 13.1 7.3 7.8 70 2.6 WSW 28 46 15 25 1015.8 1015.7 0.0
26/10:30am 13.3 6.8 8.2 71 2.5 WSW 32 46 17 25 1015.6 1015.5 0.0
26/10:09am 13.2 7.4 7.9 70 2.6 WSW 28 48 15 26 1015.4 1015.3 0.0
26/10:00am 13.3 6.8 8.2 71 2.5 WSW 32 43 17 23 1015.4 1015.3 0.0
26/09:30am 12.5 8.8 9.3 81 1.6 W 19 26 10 14 1015.4 1015.3 0.0
26/09:00am 12.2 8.4 9.9 86 1.2 WSW 20 32 11 17 1015.2 1015.1 13.6
26/08:30am 11.9 8.2 10.0 88 1.0 W 20 30 11 16 1015.0 1014.9 13.6
26/08:00am 11.6 7.9 10.2 91 0.7 WSW 20 28 11 15 1014.6 1014.5 13.6
26/07:30am 11.5 8.5 10.7 95 0.4 WSW 17 22 9 12 1014.2 1014.1 13.6
26/07:00am 11.5 7.1 10.4 93 0.6 WSW 24 32 13 17 1013.6 1013.5 13.6
26/06:30am 11.7 7.4 10.8 94 0.5 WSW 24 35 13 19 1013.0 1012.9 13.4
26/06:00am 11.8 7.7 11.3 97 0.3 WSW 24 33 13 18 1012.5 1012.4 13.4
26/05:30am 11.8 7.8 11.8 100 0.0 WSW 24 32 13 17 1012.2 1012.1 13.4
26/05:02am 11.9 8.7 11.9 100 0.0 WSW 20 28 11 15 1012.0 1011.9 13.4
26/05:00am 11.9 8.7 11.9 100 0.0 WSW 20 28 11 15 1012.0 1011.9 13.4
26/04:43am 12.0 8.8 12.0 100 0.0 WSW 20 30 11 16 1011.8 1011.7 13.4
26/04:30am 12.1 8.2 12.1 100 0.0 WSW 24 33 13 18 1011.6 1011.5 13.2
26/04:16am 12.2 8.3 12.2 100 0.0 WSW 24 39 13 21 1011.5 1011.4 12.6
26/04:00am 12.2 8.7 12.2 100 0.0 WSW 22 32 12 17 1011.2 1011.1 12.4
26/03:58am 12.3 8.8 12.3 100 0.0 WSW 22 32 12 17 1011.2 1011.1 12.4
26/03:44am 12.3 9.2 12.3 100 0.0 WSW 20 28 11 15 1011.2 1011.1 12.0
26/03:42am 12.3 9.2 12.3 100 0.0 WSW 20 30 11 16 1011.2 1011.1 12.0
26/03:30am 12.4 9.0 12.4 100 0.0 WSW 22 32 12 17 1011.0 1010.9 11.4
26/03:03am 12.5 10.1 12.5 100 0.0 WSW 17 24 9 13 1011.0 1010.9 10.0
26/03:00am 12.5 10.1 12.5 100 0.0 WSW 17 22 9 12 1011.0 1010.9 9.8
26/02:30am 12.5 10.4 12.5 100 0.0 WSW 15 19 8 10 1011.0 1010.9 9.2
26/02:00am 12.5 10.1 12.5 100 0.0 WSW 17 20 9 11 1011.0 1010.9 8.8
26/01:49am 12.5 9.7 12.5 100 0.0 WSW 19 28 10 15 1011.0 1010.9 8.8
26/01:30am 12.5 9.5 12.5 100 0.0 WSW 20 28 11 15 1010.9 1010.8 8.8
26/01:00am 12.3 9.8 12.3 100 0.0 W 17 22 9 12 1010.8 1010.7 8.2
26/12:30am 12.3 9.4 12.3 100 0.0 W 19 24 10 13 1010.9 1010.8 8.2
26/12:00am 12.3 9.8 12.3 100 0.0 W 17 22 9 12 1010.8 1010.7 8.2
 
Date/Time
EST
Temp
°C
App
Temp
°C
Dew
Point
Rel
Hum
%
Delta-T
°C
Wind Press
QNH
hPa
Press
MSL
hPa
Rain
since 9 am
mm
Dir
 
Spd
km/h
Gust
km/h
Spd
kts
Gust
kts
25/11:30pm 12.3 10.2 12.3 100 0.0 W 15 20 8 11 1010.8 1010.7 8.2
25/11:00pm 12.4 10.3 12.4 100 0.0 W 15 19 8 10 1010.7 1010.6 8.2
25/10:30pm 12.6 10.2 12.6 100 0.0 W 17 22 9 12 1010.6 1010.5 8.2
25/10:00pm 12.7 10.7 12.7 100 0.0 W 15 20 8 11 1010.9 1010.8 8.2
25/09:30pm 12.8 10.8 12.8 100 0.0 W 15 20 8 11 1010.8 1010.7 8.0
25/09:00pm 12.8 10.4 12.8 100 0.0 WSW 17 20 9 11 1010.7 1010.6 7.8
25/08:30pm 12.8 11.2 12.8 100 0.0 W 13 17 7 9 1010.5 1010.4 7.6
25/08:00pm 12.7 11.6 11.8 94 0.5 WNW 9 11 5 6 1010.4 1010.3 7.2
25/07:30pm 12.6 11.4 11.5 93 0.6 NW 9 11 5 6 1010.1 1010.0 7.2
25/07:00pm 12.5 11.3 11.6 94 0.5 NW 9 13 5 7 1009.8 1009.7 7.2
25/06:30pm 12.0 11.1 11.4 96 0.3 NW 7 9 4 5 1009.7 1009.6 7.2
25/06:00pm 12.0 11.6 11.2 95 0.4 WNW 4 7 2 4 1009.2 1009.1 7.2
25/05:30pm 12.1 11.0 10.8 92 0.7 W 7 9 4 5 1008.7 1008.6 7.2
25/05:00pm 13.3 11.7 11.4 88 1.0 W 11 13 6 7 1008.7 1008.6 7.2
25/04:30pm 14.6 13.0 11.4 81 1.7 W 11 17 6 9 1008.6 1008.5 7.2
25/04:00pm 14.4 13.5 11.4 82 1.6 W 7 9 4 5 1008.2 1008.2 7.2
25/03:30pm 14.0 13.9 10.8 81 1.7 NW 2 7 1 4 1008.1 1008.1 7.2
25/03:00pm 13.7 12.7 10.9 83 1.5 N 7 9 4 5 1008.0 1008.0 7.2
25/02:30pm 14.0 13.1 11.5 85 1.3 NNW 7 9 4 5 1007.7 1007.7 7.2
25/02:00pm 13.3 12.4 11.5 89 1.0 NNW 7 11 4 6 1007.7 1007.7 7.2
25/01:30pm 12.1 11.4 11.3 95 0.4 N 6 7 3 4 1007.8 1007.8 7.2
25/01:00pm 11.8 10.1 11.3 97 0.3 NW 11 17 6 9 1008.2 1008.2 6.8
25/12:53pm 11.9 10.4 11.9 100 0.0 NW 11 13 6 7 1008.3 1008.3 6.8
25/12:38pm 11.6 10.0 11.6 100 0.0 NW 11 15 6 8 1008.7 1008.6 6.0
25/12:30pm 11.5 9.4 11.3 99 0.1 NNW 13 19 7 10 1008.9 1008.8 5.2
25/12:00pm 11.8 9.0 11.5 98 0.2 NW 17 22 9 12 1009.3 1009.2 4.0
25/11:30am 12.2 9.3 12.2 100 0.0 NW 19 26 10 14 1009.2 1009.1 1.8
25/11:29am 12.3 9.4 12.3 100 0.0 NW 19 26 10 14 1009.2 1009.1 1.8
25/11:00am 13.3 10.8 12.2 93 0.6 NW 17 26 9 14 1009.0 1008.9 0.0
25/10:30am 13.5 10.7 12.7 95 0.4 WNW 19 24 10 13 1008.7 1008.6 0.0
25/10:00am 13.6 12.2 13.4 99 0.1 WNW 13 20 7 11 1008.3 1008.3 0.0
25/09:30am 13.2 11.7 13.2 100 0.0 NW 13 15 7 8 1008.2 1008.2 0.0
25/09:00am 12.8 12.0 12.8 100 0.0 NW 9 11 5 6 1008.2 1008.2 3.2
25/08:30am 12.5 11.6 12.5 100 0.0 NW 9 13 5 7 1007.9 1007.9 3.2
25/08:16am 12.3 11.3 12.3 100 0.0 NNW 9 11 5 6 1007.7 1007.7 3.2
25/08:00am 11.3 10.6 11.3 100 0.0 NW 6 7 3 4 1007.4 1007.4 3.2
25/07:30am 10.1 8.8 10.1 100 0.0 NNW 7 9 4 5 1007.1 1007.1 3.2
25/07:00am 10.5 9.6 10.5 100 0.0 N 6 7 3 4 1006.7 1006.7 3.2
25/06:51am 10.3 10.1 10.3 100 0.0 NNW 2 9 1 5 1006.7 1006.7 3.2
25/06:49am 10.2 9.9 10.2 100 0.0 NW 2 7 1 4 1006.7 1006.7 3.2
25/06:30am 10.2 8.6 10.2 100 0.0 NW 9 9 5 5 1006.3 1006.3 3.2
25/06:00am 10.6 8.7 10.6 100 0.0 WNW 11 13 6 7 1005.9 1005.9 3.2
25/05:30am 10.7 8.9 10.7 100 0.0 NW 11 15 6 8 1005.9 1005.9 3.2
25/05:00am 10.2 8.6 10.2 100 0.0 NW 9 11 5 6 1005.9 1005.9 3.2
25/04:30am 11.3 11.0 11.3 100 0.0 WNW 4 7 2 4 1005.8 1005.8 3.2
25/04:29am 11.3 11.0 11.3 100 0.0 W 4 7 2 4 1005.8 1005.8 3.2
25/04:09am 11.7 10.5 11.7 100 0.0 WNW 9 11 5 6 1006.1 1006.1 3.2
25/04:00am 11.5 10.6 11.5 100 0.0 W 7 11 4 6 1006.2 1006.2 3.2
25/03:54am 11.2 10.4 11.2 100 0.0 WSW 6 9 3 5 1006.2 1006.2 3.2
25/03:35am 12.0 11.3 12.0 100 0.0 WSW 7 11 4 6 1006.1 1006.1 3.2
25/03:30am 11.9 10.8 11.9 100 0.0 W 9 13 5 7 1006.1 1006.1 3.2
25/03:00am 10.8 9.7 10.8 100 0.0 NW 7 9 4 5 1006.1 1006.1 3.2
25/02:30am 11.2 10.4 11.2 100 0.0 NW 6 7 3 4 1006.0 1006.0 3.2
25/02:00am 11.4 10.7 11.4 100 0.0 NW 6 7 3 4 1006.0 1006.0 3.2
25/01:30am 11.6 10.8 11.6 100 0.0 NW 7 9 4 5 1005.8 1005.8 3.2
25/01:00am 11.3 10.4 11.3 100 0.0 WNW 7 9 4 5 1005.8 1005.8 3.2
25/12:30am 12.7 12.2 12.7 100 0.0 WNW 7 9 4 5 1005.6 1005.6 3.2
25/12:00am 12.2 11.2 12.2 100 0.0 NW 9 11 5 6 1005.5 1005.5 3.2
 
Date/Time
EST
Temp
°C
App
Temp
°C
Dew
Point
Rel
Hum
%
Delta-T
°C
Wind Press
QNH
hPa
Press
MSL
hPa
Rain
since 9 am
mm
Dir
 
Spd
km/h
Gust
km/h
Spd
kts
Gust
kts
24/11:30pm 12.4 11.4 12.4 100 0.0 NW 9 11 5 6 1005.3 1005.3 3.2
24/11:00pm 13.0 12.6 13.0 100 0.0 NW 7 9 4 5 1005.3 1005.3 3.2
24/10:56pm 13.1 12.7 13.1 100 0.0 WNW 7 9 4 5 1005.3 1005.3 3.2
24/10:30pm 14.3 14.0 14.3 100 0.0 WSW 9 13 5 7 1005.3 1005.3 3.2
24/10:00pm 15.1 15.1 15.1 100 0.0 W 9 11 5 6 1005.5 1005.5 2.8
24/09:51pm 15.1 15.1 15.1 100 0.0 WNW 9 11 5 6 1005.3 1005.3 2.8
24/09:30pm 15.1 15.4 15.1 100 0.0 NNW 7 9 4 5 1005.1 1005.1 2.8
24/09:00pm 15.5 16.2 15.5 100 0.0 N 6 7 3 4 1004.9 1004.9 2.8
24/08:47pm 15.8 16.4 15.8 100 0.0 N 7 9 4 5 1004.8 1004.8 2.8
24/08:30pm 15.3 17.0 15.3 100 0.0 CALM 0 6 0 3 1004.8 1004.8 2.8
24/08:18pm 15.5 16.0 15.5 100 0.0 N 7 11 4 6 1004.7 1004.7 2.8
24/08:00pm 15.5 16.0 15.5 100 0.0 N 7 9 4 5 1004.5 1004.5 2.8
24/07:30pm 15.7 16.3 15.7 100 0.0 NNE 7 11 4 6 1004.4 1004.4 2.8
24/07:00pm 15.7 16.3 15.7 100 0.0 NNE 7 9 4 5 1004.2 1004.2 2.8
24/06:30pm 16.0 16.7 16.0 100 0.0 ESE 7 7 4 4 1003.7 1003.7 2.8
24/06:00pm 16.1 16.4 16.1 100 0.0 SSW 9 11 5 6 1003.3 1003.3 2.8
24/05:54pm 16.3 16.7 16.3 100 0.0 SSW 9 9 5 5 1003.3 1003.3 2.8
24/05:30pm 17.0 17.7 17.0 100 0.0 S 9 13 5 7 1003.0 1003.0 2.8
24/05:20pm 17.1 17.4 17.1 100 0.0 S 11 15 6 8 1002.9 1002.9 2.8
24/05:00pm 17.2 16.7 16.9 98 0.2 SSW 15 19 8 10 1002.5 1002.5 2.8
24/04:30pm 18.2 17.9 16.4 89 1.1 SSW 13 17 7 9 1002.2 1002.2 2.8
24/04:00pm 19.0 20.1 17.0 88 1.2 SSW 7 11 4 6 1002.1 1002.1 2.8
24/03:30pm 19.2 19.9 15.5 79 2.2 W 6 9 3 5 1002.1 1002.1 2.8
24/03:00pm 18.9 19.9 15.4 80 2.1 WNW 4 6 2 3 1002.2 1002.2 2.8
24/02:30pm 19.0 20.0 16.4 85 1.6 NNE 6 7 3 4 1002.1 1002.1 2.8
24/02:00pm 18.4 19.6 15.8 85 1.5 NE 4 6 2 3 1002.4 1002.4 2.8
24/01:30pm 18.1 19.0 16.6 91 0.9 NE 7 9 4 5 1002.4 1002.4 2.8
24/01:00pm 17.9 19.0 17.1 95 0.5 NNE 7 9 4 5 1002.7 1002.7 2.8
24/12:30pm 16.6 17.1 16.6 100 0.0 NNE 9 13 5 7 1003.1 1003.1 2.8
24/12:00pm 16.2 16.2 16.2 100 0.0 NNE 11 13 6 7 1003.7 1003.7 2.8
24/11:30am 15.5 16.2 15.5 100 0.0 NE 6 7 3 4 1004.2 1004.2 2.8
24/11:00am 15.0 15.3 15.0 100 0.0 NW 7 9 4 5 1004.7 1004.7 2.8
24/10:57am 15.0 15.5 15.0 100 0.0 NW 6 9 3 5 1004.8 1004.8 2.8
24/10:44am 14.6 14.8 14.6 100 0.0 NW 7 9 4 5 1004.8 1004.8 2.8
24/10:30am 14.4 14.1 14.4 100 0.0 NNE 9 11 5 6 1004.5 1004.5 2.6
24/10:00am 14.1 14.1 14.1 100 0.0 NNE 7 9 4 5 1004.6 1004.6 2.2
24/09:30am 14.2 13.8 14.2 100 0.0 N 9 9 5 5 1005.2 1005.2 0.8
24/09:00am 13.9 14.0 13.9 100 0.0 NNW 6 7 3 4 1005.4 1005.4 4.4
24/08:51am 14.0 14.1 14.0 100 0.0 NNW 6 7 3 4 1005.4 1005.4 4.4
24/08:36am 13.9 14.0 13.9 100 0.0 NW 6 7 3 4 1005.6 1005.6 4.0
24/08:30am 13.8 14.2 13.8 100 0.0 NW 4 6 2 3 1005.5 1005.5 3.6

Other Formats:

Comma delimited format used in spreadsheet applications
http://www.bom.gov.au/fwo/IDV60801/IDV60801.94912.axf

JavaScript Object Notation format (JSON) in row-major order
http://www.bom.gov.au/fwo/IDV60801/IDV60801.94912.json